createdAt,value
2018-07-17T00:01:16.323Z,68.39
2018-07-17T00:04:21.445Z,67.98
2018-07-17T00:07:26.645Z,68.32
2018-07-17T00:10:31.540Z,68.11
2018-07-17T00:13:36.684Z,68.40
2018-07-17T00:16:41.596Z,68.61
2018-07-17T00:19:46.518Z,68.84
2018-07-17T00:22:51.712Z,68.63
2018-07-17T00:25:57.351Z,68.34
2018-07-17T00:29:03.267Z,69.14
2018-07-17T00:32:09.376Z,68.22
2018-07-17T00:35:16.395Z,68.70
2018-07-17T00:38:22.100Z,68.94
2018-07-17T00:41:28.213Z,69.07
2018-07-17T00:44:33.787Z,69.15
2018-07-17T00:47:38.680Z,68.55
2018-07-17T00:50:43.849Z,68.52
2018-07-17T00:53:50.661Z,69.38
2018-07-17T00:56:55.961Z,68.78
2018-07-17T01:00:01.149Z,69.61
2018-07-17T01:03:14.025Z,69.01
2018-07-17T01:06:26.658Z,69.60
2018-07-17T01:09:37.579Z,69.23
2018-07-17T01:12:42.204Z,69.56
2018-07-17T01:15:47.880Z,69.12
2018-07-17T01:18:53.986Z,69.98
2018-07-17T01:21:59.010Z,69.40
2018-07-17T01:25:05.021Z,69.32
2018-07-17T01:28:10.595Z,70.00
2018-07-17T01:31:16.333Z,70.19
2018-07-17T01:34:21.985Z,69.47
2018-07-17T01:37:27.049Z,70.44
2018-07-17T01:40:31.913Z,69.83
2018-07-17T01:43:37.759Z,70.16
2018-07-17T01:46:43.814Z,70.21
2018-07-17T01:49:49.004Z,70.80
2018-07-17T01:52:53.853Z,69.87
2018-07-17T01:55:59.113Z,70.62
2018-07-17T01:59:04.531Z,71.19
2018-07-17T02:02:10.850Z,70.48
2018-07-17T02:05:16.123Z,70.78
2018-07-17T02:08:20.929Z,71.35
2018-07-17T02:11:25.783Z,70.08
2018-07-17T02:14:31.674Z,70.99
2018-07-17T02:17:37.522Z,70.23
2018-07-17T02:20:42.386Z,71.42
2018-07-17T02:23:48.235Z,70.54
2018-07-17T02:26:54.800Z,70.72
2018-07-17T02:30:00.611Z,71.24
2018-07-17T02:33:06.628Z,71.43
2018-07-17T02:36:13.852Z,70.63
2018-07-17T02:39:19.527Z,71.09
2018-07-17T02:42:25.359Z,71.08
2018-07-17T02:45:31.321Z,71.89
2018-07-17T02:48:36.125Z,71.11
2018-07-17T02:51:41.717Z,71.22
2018-07-17T02:54:48.433Z,71.04
2018-07-17T02:57:54.086Z,70.85
2018-07-17T03:00:58.924Z,70.99
2018-07-17T03:04:04.914Z,72.01
2018-07-17T03:07:14.322Z,72.14
2018-07-17T03:10:20.555Z,71.70
2018-07-17T03:13:26.285Z,71.11
2018-07-17T03:16:32.133Z,71.29
2018-07-17T03:19:37.042Z,71.98
2018-07-17T03:22:43.454Z,71.39
2018-07-17T03:25:49.207Z,72.05
2018-07-17T03:28:54.637Z,71.47
2018-07-17T03:31:59.849Z,72.41
2018-07-17T03:35:18.452Z,71.88
2018-07-17T03:38:27.061Z,72.07
2018-07-17T03:41:32.997Z,72.58
2018-07-17T03:44:38.672Z,71.69
2018-07-17T03:47:44.425Z,72.55
2018-07-17T03:50:59.578Z,71.55
2018-07-17T03:54:08.052Z,71.64
2018-07-17T03:57:14.287Z,71.79
2018-07-17T04:00:19.130Z,72.82
2018-07-17T04:03:24.981Z,72.56
2018-07-17T04:06:30.431Z,72.61
2018-07-17T04:09:36.180Z,72.00
2018-07-17T04:12:40.955Z,72.38
2018-07-17T04:15:47.705Z,72.00
2018-07-17T04:18:54.520Z,71.64
2018-07-17T04:22:00.255Z,72.39
2018-07-17T04:25:05.103Z,72.16
2018-07-17T04:28:10.581Z,71.45
2018-07-17T04:31:16.425Z,71.77
2018-07-17T04:34:21.288Z,71.08
2018-07-17T04:37:26.680Z,71.00
2018-07-17T04:40:32.436Z,70.52
2018-07-17T04:43:37.298Z,70.72
2018-07-17T04:46:42.526Z,70.61
2018-07-17T04:49:47.369Z,70.22
2018-07-17T04:52:52.591Z,70.25
2018-07-17T04:55:57.719Z,70.50
2018-07-17T04:59:03.471Z,70.69
2018-07-17T05:02:10.188Z,70.80
2018-07-17T05:05:16.130Z,71.56
2018-07-17T05:08:21.306Z,71.38
2018-07-17T05:11:27.169Z,71.14
2018-07-17T05:14:32.756Z,72.20
2018-07-17T05:17:38.905Z,72.42
2018-07-17T05:20:44.878Z,72.56
2018-07-17T05:23:51.452Z,73.40
2018-07-17T05:26:56.690Z,72.70
2018-07-17T05:30:01.534Z,73.18
2018-07-17T05:33:07.718Z,71.17
2018-07-17T05:36:14.868Z,70.69
2018-07-17T05:39:20.448Z,70.30
2018-07-17T05:42:25.261Z,70.66
2018-07-17T05:45:30.974Z,71.08
2018-07-17T05:48:36.252Z,70.87
2018-07-17T05:51:41.092Z,70.32
2018-07-17T05:54:47.821Z,70.66
2018-07-17T05:57:53.526Z,70.87
2018-07-17T06:00:58.717Z,70.99
2018-07-17T06:04:03.557Z,70.21
2018-07-17T06:07:08.738Z,71.15
2018-07-17T06:10:14.555Z,70.79
2018-07-17T06:13:19.572Z,71.11
2018-07-17T06:16:25.091Z,70.93
2018-07-17T06:19:29.956Z,71.28
2018-07-17T06:22:36.150Z,70.65
2018-07-17T06:25:41.917Z,70.84
2018-07-17T06:28:47.345Z,71.00
2018-07-17T06:31:53.097Z,70.65
2018-07-17T06:34:59.039Z,71.63
2018-07-17T06:38:05.781Z,71.29
2018-07-17T06:41:10.645Z,70.83
2018-07-17T06:44:15.949Z,70.93
2018-07-17T06:47:21.625Z,71.22
2018-07-17T06:50:27.049Z,70.80
2018-07-17T06:53:32.933Z,71.59
2018-07-17T06:56:38.195Z,71.40
2018-07-17T06:59:45.195Z,71.00
2018-07-17T07:02:50.318Z,70.67
2018-07-17T07:05:55.561Z,71.62
2018-07-17T07:09:02.336Z,70.95
2018-07-17T07:12:09.013Z,71.42
2018-07-17T07:15:15.110Z,71.30
2018-07-17T07:18:19.998Z,70.70
2018-07-17T07:21:25.750Z,70.95
2018-07-17T07:24:31.297Z,71.32
2018-07-17T07:27:36.459Z,70.27
2018-07-17T07:30:41.309Z,70.90
2018-07-17T07:33:46.129Z,70.97
2018-07-17T07:36:51.616Z,71.20
2018-07-17T07:39:56.469Z,70.30
2018-07-17T07:43:02.559Z,70.80
2018-07-17T07:46:07.857Z,70.92
2018-07-17T07:49:12.766Z,70.84
2018-07-17T07:52:18.740Z,70.12
2018-07-17T07:55:25.515Z,70.66
2018-07-17T07:58:31.354Z,69.94
2018-07-17T08:01:36.189Z,70.45
2018-07-17T08:04:41.119Z,70.16
2018-07-17T08:07:46.068Z,70.57
2018-07-17T08:10:51.433Z,71.02
2018-07-17T08:13:57.205Z,70.24
2018-07-17T08:17:02.561Z,70.70
2018-07-17T08:20:07.730Z,70.46
2018-07-17T08:23:12.606Z,70.67
2018-07-17T08:26:17.857Z,71.13
2018-07-17T08:29:22.725Z,70.11
2018-07-17T08:32:28.590Z,70.09
2018-07-17T08:35:34.324Z,69.68
2018-07-17T08:38:40.134Z,70.72
2018-07-17T08:41:45.325Z,70.07
2018-07-17T08:44:50.178Z,69.45
2018-07-17T08:47:56.156Z,69.96
2018-07-17T08:51:01.739Z,68.75
2018-07-17T08:54:07.700Z,69.91
2018-07-17T08:57:13.490Z,68.53
2018-07-17T09:00:18.551Z,69.49
2018-07-17T09:03:23.601Z,68.69
2018-07-17T09:06:29.526Z,68.24
2018-07-17T09:09:35.226Z,69.20
2018-07-17T09:12:40.859Z,68.44
2018-07-17T09:15:46.049Z,68.49
2018-07-17T09:18:51.810Z,67.65
2018-07-17T09:21:57.192Z,68.52
2018-07-17T09:25:02.953Z,68.28
2018-07-17T09:28:08.222Z,67.82
2018-07-17T09:31:13.327Z,67.58
2018-07-17T09:34:18.157Z,66.69
2018-07-17T09:37:24.321Z,66.82
2018-07-17T09:40:30.437Z,66.38
2018-07-17T09:43:35.295Z,65.67
2018-07-17T09:46:40.145Z,65.62
2018-07-17T09:49:45.428Z,65.33
2018-07-17T09:52:51.270Z,64.64
2018-07-17T09:55:56.129Z,63.98
2018-07-17T09:59:01.471Z,63.81
2018-07-17T10:02:12.540Z,63.31
2018-07-17T10:05:17.649Z,62.43
2018-07-17T10:08:23.553Z,60.29
2018-07-17T10:11:29.714Z,59.07
2018-07-17T10:14:34.891Z,58.33
2018-07-17T10:17:40.102Z,59.81
2018-07-17T10:20:47.320Z,60.13
2018-07-17T10:23:52.902Z,58.93
2018-07-17T10:26:58.964Z,57.77
2018-07-17T10:30:04.250Z,58.09
2018-07-17T10:33:10.374Z,58.81
2018-07-17T10:36:15.940Z,58.77
2018-07-17T10:39:20.801Z,58.33
2018-07-17T10:42:26.049Z,58.53
2018-07-17T10:45:31.221Z,58.71
2018-07-17T10:48:37.410Z,59.26
2018-07-17T10:51:43.227Z,58.81
2018-07-17T10:54:48.045Z,58.14
2018-07-17T10:57:53.325Z,58.91
2018-07-17T11:00:58.191Z,58.17
2018-07-17T11:04:05.077Z,58.59
2018-07-17T11:07:09.921Z,57.46
2018-07-17T11:10:14.777Z,57.60
2018-07-17T11:13:20.648Z,58.07
2018-07-17T11:16:26.205Z,58.24
2018-07-17T11:19:33.026Z,56.63
2018-07-17T11:22:37.882Z,57.09
2018-07-17T11:25:43.273Z,57.35
2018-07-17T11:28:48.128Z,57.46
2018-07-17T11:31:53.033Z,56.42
2018-07-17T11:34:58.380Z,57.07
2018-07-17T11:38:04.545Z,56.51
2018-07-17T11:41:11.691Z,56.61
2018-07-17T11:44:17.349Z,56.29
2018-07-17T11:47:22.505Z,55.88
2018-07-17T11:50:27.601Z,56.44
2018-07-17T11:53:32.457Z,56.30
2018-07-17T11:56:37.555Z,57.11
2018-07-17T11:59:42.405Z,56.63
2018-07-17T12:02:47.263Z,55.76
2018-07-17T12:05:53.605Z,55.56
2018-07-17T12:08:58.650Z,55.96
2018-07-17T12:12:03.526Z,54.47
2018-07-17T12:15:08.886Z,53.77
2018-07-17T12:18:13.859Z,54.80
2018-07-17T12:21:20.649Z,55.07
2018-07-17T12:24:25.567Z,55.27
2018-07-17T12:27:30.902Z,55.13
2018-07-17T12:30:36.705Z,54.82
2018-07-17T12:33:41.894Z,55.32
2018-07-17T12:36:48.027Z,53.92
2018-07-17T12:39:53.970Z,55.18
2018-07-17T12:43:00.073Z,53.61
2018-07-17T12:46:06.118Z,54.33
2018-07-17T12:49:13.100Z,53.20
2018-07-17T12:52:20.168Z,54.08
2018-07-17T12:55:25.927Z,54.16
2018-07-17T12:58:30.799Z,54.01
2018-07-17T13:01:36.146Z,53.16
2018-07-17T13:04:41.000Z,53.62
2018-07-17T13:07:46.906Z,52.77
2018-07-17T13:10:52.794Z,52.99
2018-07-17T13:13:58.366Z,53.95
2018-07-17T13:17:03.222Z,53.20
2018-07-17T13:20:08.117Z,54.06
2018-07-17T13:23:12.997Z,53.42
2018-07-17T13:26:19.205Z,53.79
2018-07-17T13:29:25.192Z,52.61
2018-07-17T13:32:31.048Z,53.04
2018-07-17T13:35:36.701Z,53.09
2018-07-17T13:38:42.488Z,51.63
2018-07-17T13:41:47.359Z,52.48
2018-07-17T13:44:53.220Z,52.16
2018-07-17T13:47:58.518Z,51.97
2018-07-17T13:51:04.365Z,51.50
2018-07-17T13:54:09.252Z,51.31
2018-07-17T13:57:16.533Z,51.64
2018-07-17T14:00:22.663Z,51.85
2018-07-17T14:03:28.526Z,52.46
2018-07-17T14:06:35.553Z,52.21
2018-07-17T14:09:41.240Z,51.33
2018-07-17T14:12:47.005Z,52.19
2018-07-17T14:15:52.278Z,50.61
2018-07-17T14:18:57.124Z,50.47
2018-07-17T14:22:02.487Z,50.98
2018-07-17T14:25:07.321Z,50.64
2018-07-17T14:28:14.105Z,50.74
2018-07-17T14:31:19.901Z,49.87
2018-07-17T14:34:26.649Z,50.01
2018-07-17T14:37:32.081Z,51.31
2018-07-17T14:40:36.897Z,50.56
2018-07-17T14:43:41.738Z,50.47
2018-07-17T14:46:47.580Z,49.60
2018-07-17T14:49:53.093Z,50.28
2018-07-17T14:52:58.214Z,50.52
2018-07-17T14:56:03.993Z,49.99
2018-07-17T14:59:09.602Z,49.99
2018-07-17T15:02:15.698Z,50.26
2018-07-17T15:05:21.133Z,49.54
2018-07-17T15:08:26.105Z,48.80
2018-07-17T15:11:31.301Z,48.75
2018-07-17T15:14:37.899Z,47.69
2018-07-17T15:17:42.961Z,49.43
2018-07-17T15:20:48.084Z,47.38
2018-07-17T15:23:54.195Z,48.52
2018-07-17T15:27:00.060Z,47.34
2018-07-17T15:30:05.964Z,48.41
2018-07-17T15:33:11.760Z,47.69
2018-07-17T15:36:17.424Z,47.88
2018-07-17T15:39:23.338Z,47.42
2018-07-17T15:42:30.330Z,47.81
2018-07-17T15:45:36.199Z,49.12
2018-07-17T15:48:42.191Z,47.08
2018-07-17T15:51:47.864Z,47.61
2018-07-17T15:54:52.889Z,47.75
2018-07-17T15:57:57.915Z,48.58
2018-07-17T16:01:03.980Z,46.67
2018-07-17T16:04:10.045Z,47.66
2018-07-17T16:07:15.838Z,46.94
2018-07-17T16:10:20.923Z,47.09
2018-07-17T16:13:26.317Z,46.08
2018-07-17T16:16:31.724Z,45.99
2018-07-17T16:19:37.785Z,45.68
2018-07-17T16:22:44.087Z,46.11
2018-07-17T16:25:50.125Z,47.47
2018-07-17T16:28:55.874Z,46.21
2018-07-17T16:32:01.811Z,45.88
2018-07-17T16:35:09.126Z,44.87
2018-07-17T16:38:14.440Z,45.97
2018-07-17T16:41:20.744Z,47.43
2018-07-17T16:44:26.049Z,45.88
2018-07-17T16:47:31.977Z,46.77
2018-07-17T16:50:37.887Z,47.69
2018-07-17T16:53:43.683Z,47.30
2018-07-17T16:56:49.469Z,47.58
2018-07-17T16:59:55.749Z,46.07
2018-07-17T17:03:00.945Z,46.77
2018-07-17T17:06:06.468Z,46.58
2018-07-17T17:09:12.564Z,46.18
2018-07-17T17:12:17.810Z,46.58
2018-07-17T17:15:22.992Z,46.41
2018-07-17T17:18:30.229Z,46.92
2018-07-17T17:21:36.051Z,46.56
2018-07-17T17:24:41.692Z,47.94
2018-07-17T17:27:47.698Z,47.23
2018-07-17T17:30:53.585Z,46.85
2018-07-17T17:33:59.531Z,47.33
2018-07-17T17:37:04.676Z,48.20
2018-07-17T17:40:11.213Z,47.52
2018-07-17T17:43:17.133Z,48.24
2018-07-17T17:46:24.261Z,47.56
2018-07-17T17:49:29.747Z,48.79
2018-07-17T17:52:35.772Z,48.64
2018-07-17T17:55:41.684Z,48.60
2018-07-17T17:58:47.398Z,48.57
2018-07-17T18:01:53.601Z,49.15
2018-07-17T18:04:59.334Z,48.88
2018-07-17T18:08:05.617Z,49.26
2018-07-17T18:11:11.875Z,50.34
2018-07-17T18:14:18.160Z,50.52
2018-07-17T18:17:24.011Z,49.57
2018-07-17T18:20:30.276Z,50.78
2018-07-17T18:23:35.454Z,50.17
2018-07-17T18:26:40.652Z,50.94
2018-07-17T18:29:46.680Z,51.07
2018-07-17T18:32:52.199Z,50.06
2018-07-17T18:35:59.290Z,50.23
2018-07-17T18:39:06.683Z,50.52
2018-07-17T18:42:12.061Z,51.59
2018-07-17T18:45:24.307Z,50.91
2018-07-17T18:48:30.510Z,51.21
2018-07-17T18:51:36.489Z,51.14
2018-07-17T18:54:41.783Z,51.29
2018-07-17T18:57:47.931Z,52.26
2018-07-17T19:00:53.140Z,52.24
2018-07-17T19:03:58.945Z,51.78
2018-07-17T19:07:04.860Z,52.03
2018-07-17T19:10:10.890Z,52.79
2018-07-17T19:13:16.645Z,52.73
2018-07-17T19:16:22.996Z,52.43
2018-07-17T19:19:28.334Z,52.35
2018-07-17T19:22:33.614Z,52.36
2018-07-17T19:25:38.846Z,52.53
2018-07-17T19:28:45.175Z,53.47
2018-07-17T19:31:50.397Z,51.43
2018-07-17T19:34:56.792Z,52.08
2018-07-17T19:38:02.921Z,50.87
2018-07-17T19:41:09.122Z,52.09
2018-07-17T19:44:14.795Z,51.12
2018-07-17T19:47:20.330Z,52.24
2018-07-17T19:50:27.179Z,51.21
2018-07-17T19:53:33.090Z,51.31
2018-07-17T19:56:39.012Z,51.07
2018-07-17T19:59:43.897Z,51.03
2018-07-17T20:02:49.002Z,52.50
2018-07-17T20:05:54.813Z,52.54
2018-07-17T20:09:00.135Z,52.63
2018-07-17T20:12:05.562Z,53.35
2018-07-17T20:15:11.385Z,53.91
2018-07-17T20:18:16.207Z,54.21
2018-07-17T20:21:21.572Z,54.90
2018-07-17T20:24:26.803Z,55.09
2018-07-17T20:27:32.469Z,54.72
2018-07-17T20:30:37.345Z,55.06
2018-07-17T20:33:42.753Z,54.67
2018-07-17T20:36:48.079Z,55.67
2018-07-17T20:39:54.801Z,54.69
2018-07-17T20:43:00.253Z,55.75
2018-07-17T20:46:06.156Z,55.89
2018-07-17T20:49:10.961Z,56.18
2018-07-17T20:52:16.397Z,56.22
2018-07-17T20:55:22.277Z,56.42
2018-07-17T20:58:27.099Z,56.65
2018-07-17T21:01:32.171Z,55.76
2018-07-17T21:04:37.029Z,56.13
2018-07-17T21:07:42.248Z,56.58
2018-07-17T21:10:48.128Z,56.70
2018-07-17T21:13:54.543Z,57.24
2018-07-17T21:17:00.360Z,56.52
2018-07-17T21:20:06.653Z,56.45
2018-07-17T21:23:13.068Z,57.33
2018-07-17T21:26:19.541Z,56.56
2018-07-17T21:29:25.613Z,57.40
2018-07-17T21:32:31.525Z,57.90
2018-07-17T21:35:37.144Z,57.67
2018-07-17T21:38:42.297Z,57.77
2018-07-17T21:41:48.065Z,57.88
2018-07-17T21:44:52.897Z,57.24
2018-07-17T21:47:58.136Z,57.83
2018-07-17T21:51:02.982Z,57.88
2018-07-17T21:54:07.809Z,57.63
2018-07-17T21:57:13.485Z,58.24
2018-07-17T22:00:19.166Z,57.69
2018-07-17T22:03:25.237Z,58.22
2018-07-17T22:06:31.354Z,57.82
2018-07-17T22:09:36.169Z,58.36
2018-07-17T22:12:41.891Z,58.68
2018-07-17T22:15:47.553Z,58.29
2018-07-17T22:18:52.393Z,59.24
2018-07-17T22:21:58.197Z,59.42
2018-07-17T22:25:04.141Z,58.49
2018-07-17T22:28:09.766Z,59.50
2018-07-17T22:31:16.573Z,59.40
2018-07-17T22:34:21.811Z,59.95
2018-07-17T22:37:26.633Z,59.57
2018-07-17T22:40:32.765Z,60.30
2018-07-17T22:43:37.692Z,60.05
2018-07-17T22:46:43.063Z,59.60
2018-07-17T22:49:47.881Z,60.46
2018-07-17T22:52:53.565Z,60.54
2018-07-17T22:55:59.022Z,60.08
2018-07-17T22:59:06.907Z,59.98
2018-07-17T23:02:19.669Z,60.50
2018-07-17T23:05:25.362Z,60.05
2018-07-17T23:08:30.851Z,61.20
2018-07-17T23:11:37.676Z,61.21
2018-07-17T23:14:42.502Z,60.86
2018-07-17T23:17:47.337Z,60.64
2018-07-17T23:20:52.533Z,60.66
2018-07-17T23:23:57.722Z,60.55
2018-07-17T23:27:03.494Z,60.84
2018-07-17T23:30:09.246Z,61.80
2018-07-17T23:33:14.986Z,62.29
2018-07-17T23:36:21.733Z,62.60
2018-07-17T23:39:27.001Z,62.52
2018-07-17T23:42:31.857Z,62.50
2018-07-17T23:45:37.037Z,61.94
2018-07-17T23:48:42.790Z,62.27
2018-07-17T23:51:47.627Z,61.57
2018-07-17T23:54:52.929Z,61.83
2018-07-17T23:57:57.771Z,63.14
